createdAt,value
2023-05-25T00:01:50.302Z,99.90
2023-05-25T00:04:19.825Z,99.90
2023-05-25T00:06:47.902Z,99.90
2023-05-25T00:09:15.570Z,99.90
2023-05-25T00:11:43.304Z,99.90
2023-05-25T00:14:11.043Z,99.90
2023-05-25T00:16:41.043Z,99.90
2023-05-25T00:19:11.330Z,99.90
2023-05-25T00:21:38.900Z,99.90
2023-05-25T00:24:06.711Z,99.90
2023-05-25T00:26:37.698Z,99.90
2023-05-25T00:29:05.875Z,99.90
2023-05-25T00:31:33.735Z,99.90
2023-05-25T00:34:01.547Z,99.90
2023-05-25T00:36:29.144Z,99.90
2023-05-25T00:38:56.784Z,99.90
2023-05-25T00:41:26.485Z,99.90
2023-05-25T00:43:53.953Z,99.90
2023-05-25T00:46:22.756Z,99.90
2023-05-25T00:48:54.782Z,99.90
2023-05-25T00:51:22.762Z,99.90
2023-05-25T00:53:50.427Z,99.90
2023-05-25T00:56:29.320Z,99.90
2023-05-25T00:59:00.796Z,99.90
2023-05-25T01:01:33.653Z,99.90
2023-05-25T01:04:03.975Z,99.90
2023-05-25T01:06:34.178Z,99.90
2023-05-25T01:09:05.282Z,99.90
2023-05-25T01:11:36.446Z,99.90
2023-05-25T01:14:04.176Z,99.90
2023-05-25T01:16:32.410Z,99.90
2023-05-25T01:18:59.959Z,99.90
2023-05-25T01:21:38.073Z,99.90
2023-05-25T01:24:17.786Z,99.90
2023-05-25T01:27:06.576Z,99.90
2023-05-25T01:29:35.872Z,99.90
2023-05-25T01:32:04.874Z,99.90
2023-05-25T01:34:33.359Z,99.90
2023-05-25T01:37:01.500Z,99.90
2023-05-25T01:39:29.042Z,99.90
2023-05-25T01:41:56.538Z,99.90
2023-05-25T01:44:24.674Z,99.90
2023-05-25T01:47:04.155Z,99.90
2023-05-25T01:49:50.095Z,99.90
2023-05-25T01:52:32.535Z,99.90
2023-05-25T01:55:11.252Z,99.90
2023-05-25T01:57:43.620Z,99.90
2023-05-25T02:00:13.530Z,99.90
2023-05-25T02:02:44.441Z,99.90
2023-05-25T02:05:12.730Z,99.90
2023-05-25T02:07:40.380Z,99.90
2023-05-25T02:10:08.660Z,99.90
2023-05-25T02:12:36.438Z,99.90
2023-05-25T02:15:05.027Z,99.90
2023-05-25T02:17:32.672Z,99.90
2023-05-25T02:20:00.339Z,99.90
2023-05-25T02:22:27.934Z,99.90
2023-05-25T02:24:55.764Z,99.90
2023-05-25T02:27:23.286Z,99.90
2023-05-25T02:29:51.011Z,99.90
2023-05-25T02:32:18.597Z,99.90
2023-05-25T02:34:47.297Z,99.90
2023-05-25T02:37:14.960Z,99.90
2023-05-25T02:39:42.548Z,99.90
2023-05-25T02:42:10.242Z,99.90
2023-05-25T02:44:37.823Z,99.90
2023-05-25T02:47:07.136Z,99.90
2023-05-25T02:49:34.796Z,99.90
2023-05-25T02:52:02.308Z,99.90
2023-05-25T02:54:30.203Z,99.90
2023-05-25T02:56:57.872Z,99.90
2023-05-25T02:59:25.473Z,99.90
2023-05-25T03:01:53.072Z,99.90
2023-05-25T03:04:20.639Z,99.90
2023-05-25T03:06:48.449Z,99.90
2023-05-25T03:09:16.197Z,99.90
2023-05-25T03:11:43.723Z,99.90
2023-05-25T03:14:11.587Z,99.90
2023-05-25T03:16:39.395Z,99.90
2023-05-25T03:19:07.617Z,99.90
2023-05-25T03:21:35.211Z,99.90
2023-05-25T03:24:02.798Z,99.90
2023-05-25T03:26:30.836Z,99.90
2023-05-25T03:28:58.434Z,99.90
2023-05-25T03:31:26.244Z,99.90
2023-05-25T03:33:53.808Z,99.90
2023-05-25T03:36:22.378Z,99.90
2023-05-25T03:38:50.332Z,99.90
2023-05-25T03:41:17.817Z,99.90
2023-05-25T03:43:45.618Z,99.90
2023-05-25T03:46:13.187Z,99.90
2023-05-25T03:48:40.858Z,99.90
2023-05-25T03:51:08.345Z,99.90
2023-05-25T03:53:37.198Z,99.90
2023-05-25T03:56:05.098Z,99.90
2023-05-25T03:58:32.753Z,99.90
2023-05-25T04:01:00.375Z,99.90
2023-05-25T04:03:28.170Z,99.90
2023-05-25T04:05:58.436Z,99.90
2023-05-25T04:08:26.622Z,99.90
2023-05-25T04:10:54.181Z,99.90
2023-05-25T04:13:21.729Z,99.90
2023-05-25T04:15:51.241Z,99.90
2023-05-25T04:18:19.394Z,99.90
2023-05-25T04:20:47.885Z,99.90
2023-05-25T04:23:15.557Z,99.90
2023-05-25T04:25:43.331Z,99.90
2023-05-25T04:28:12.509Z,99.90
2023-05-25T04:30:41.802Z,99.90
2023-05-25T04:33:11.807Z,99.90
2023-05-25T04:35:40.938Z,99.90
2023-05-25T04:38:08.579Z,99.90
2023-05-25T04:40:36.114Z,99.90
2023-05-25T04:43:03.657Z,99.90
2023-05-25T04:45:33.587Z,99.90
2023-05-25T04:48:01.858Z,99.90
2023-05-25T04:50:29.620Z,99.90
2023-05-25T04:52:57.991Z,99.90
2023-05-25T04:55:25.701Z,99.90
2023-05-25T04:57:56.111Z,99.90
2023-05-25T05:00:23.723Z,99.90
2023-05-25T05:02:54.330Z,99.90
2023-05-25T05:05:22.338Z,99.90
2023-05-25T05:07:49.979Z,99.90
2023-05-25T05:10:17.993Z,99.90
2023-05-25T05:12:45.918Z,98.90
2023-05-25T05:15:13.528Z,98.30
2023-05-25T05:17:41.022Z,97.20
2023-05-25T05:20:09.440Z,96.20
2023-05-25T05:22:38.098Z,94.80
2023-05-25T05:25:06.389Z,94.60
2023-05-25T05:27:34.795Z,94.70
2023-05-25T05:30:02.821Z,93.60
2023-05-25T05:32:30.769Z,93.10
2023-05-25T05:34:58.342Z,95.00
2023-05-25T05:37:25.920Z,95.30
2023-05-25T05:39:53.578Z,94.10
2023-05-25T05:42:21.270Z,94.10
2023-05-25T05:44:48.970Z,93.10
2023-05-25T05:47:16.961Z,91.30
2023-05-25T05:49:44.568Z,90.00
2023-05-25T05:52:12.202Z,83.90
2023-05-25T05:54:39.756Z,88.90
2023-05-25T05:57:07.414Z,89.70
2023-05-25T05:59:35.150Z,88.20
2023-05-25T06:02:02.728Z,89.40
2023-05-25T06:04:30.419Z,90.10
2023-05-25T06:06:58.702Z,90.50
2023-05-25T06:09:29.303Z,90.80
2023-05-25T06:11:56.904Z,94.00
2023-05-25T06:14:26.081Z,91.50
2023-05-25T06:16:55.149Z,91.00
2023-05-25T06:19:22.873Z,90.00
2023-05-25T06:21:50.886Z,88.90
2023-05-25T06:24:18.422Z,89.20
2023-05-25T06:26:45.927Z,95.00
2023-05-25T06:29:16.894Z,92.20
2023-05-25T06:31:45.018Z,92.00
2023-05-25T06:34:12.705Z,91.10
2023-05-25T06:36:41.793Z,90.80
2023-05-25T06:39:09.427Z,90.00
2023-05-25T06:41:38.649Z,86.20
2023-05-25T06:44:06.559Z,80.60
2023-05-25T06:46:34.123Z,79.70
2023-05-25T06:49:02.232Z,77.80
2023-05-25T06:51:29.863Z,78.40
2023-05-25T06:53:57.494Z,80.80
2023-05-25T06:56:25.234Z,80.30
2023-05-25T06:58:52.847Z,81.30
2023-05-25T07:01:20.636Z,80.70
2023-05-25T07:03:48.152Z,79.50
2023-05-25T07:06:17.308Z,77.10
2023-05-25T07:08:44.899Z,79.30
2023-05-25T07:11:14.389Z,81.70
2023-05-25T07:13:42.487Z,81.90
2023-05-25T07:16:10.004Z,79.90
2023-05-25T07:18:40.983Z,77.70
2023-05-25T07:21:10.299Z,76.10
2023-05-25T07:23:38.298Z,75.60
2023-05-25T07:26:06.412Z,71.80
2023-05-25T07:28:34.160Z,69.70
2023-05-25T07:31:01.777Z,67.90
2023-05-25T07:33:29.330Z,68.70
2023-05-25T07:35:56.954Z,68.80
2023-05-25T07:38:24.477Z,69.10
2023-05-25T07:40:52.878Z,72.00
2023-05-25T07:43:20.585Z,71.80
2023-05-25T07:45:48.143Z,71.20
2023-05-25T07:48:16.120Z,69.40
2023-05-25T07:50:43.874Z,70.20
2023-05-25T07:53:11.475Z,73.30
2023-05-25T07:55:38.982Z,72.80
2023-05-25T07:58:07.819Z,73.30
2023-05-25T08:00:35.642Z,72.40
2023-05-25T08:03:03.395Z,70.00
2023-05-25T08:05:31.117Z,68.90
2023-05-25T08:07:58.660Z,66.60
2023-05-25T08:10:31.530Z,65.60
2023-05-25T08:12:59.457Z,67.20
2023-05-25T08:15:27.503Z,69.30
2023-05-25T08:17:56.768Z,71.70
2023-05-25T08:20:27.397Z,71.10
2023-05-25T08:22:55.156Z,72.50
2023-05-25T08:25:22.717Z,76.90
2023-05-25T08:27:50.335Z,74.20
2023-05-25T08:30:18.024Z,72.70
2023-05-25T08:32:45.569Z,71.90
2023-05-25T08:35:14.375Z,75.10
2023-05-25T08:37:43.688Z,76.80
2023-05-25T08:40:16.600Z,77.00
2023-05-25T08:42:45.881Z,76.10
2023-05-25T08:45:22.998Z,74.50
2023-05-25T08:48:04.993Z,73.20
2023-05-25T08:50:34.028Z,69.30
2023-05-25T08:53:05.287Z,72.00
2023-05-25T08:55:37.974Z,76.90
2023-05-25T08:58:16.557Z,73.30
2023-05-25T09:00:51.680Z,71.10
2023-05-25T09:03:20.022Z,70.70
2023-05-25T09:05:47.936Z,71.00
2023-05-25T09:08:17.085Z,72.10
2023-05-25T09:10:44.723Z,76.40
2023-05-25T09:13:21.928Z,78.00
2023-05-25T09:15:51.063Z,73.40
2023-05-25T09:18:18.717Z,68.60
2023-05-25T09:20:47.330Z,65.90
2023-05-25T09:23:15.937Z,67.50
2023-05-25T09:25:44.769Z,67.60
2023-05-25T09:28:26.318Z,66.70
2023-05-25T09:30:55.449Z,67.00
2023-05-25T09:33:23.323Z,67.80
2023-05-25T09:35:51.806Z,66.90
2023-05-25T09:38:19.854Z,66.80
2023-05-25T09:40:47.822Z,68.00
2023-05-25T09:43:28.451Z,71.00
2023-05-25T09:46:04.347Z,73.00
2023-05-25T09:48:32.417Z,75.00
2023-05-25T09:50:59.983Z,76.10
2023-05-25T09:53:28.032Z,75.80
2023-05-25T09:55:56.946Z,77.30
2023-05-25T09:58:27.560Z,78.40
2023-05-25T10:00:56.068Z,80.50
2023-05-25T10:03:23.834Z,80.00
2023-05-25T10:05:53.590Z,78.90
2023-05-25T10:08:22.044Z,75.60
2023-05-25T10:10:50.327Z,71.10
2023-05-25T10:13:30.124Z,70.60
2023-05-25T10:15:59.494Z,69.70
2023-05-25T10:18:29.428Z,69.60
2023-05-25T10:21:03.614Z,68.40
2023-05-25T10:23:42.111Z,72.20
2023-05-25T10:26:13.837Z,73.50
2023-05-25T10:28:44.674Z,75.60
2023-05-25T10:31:14.126Z,74.40
2023-05-25T10:33:43.330Z,73.30
2023-05-25T10:36:15.460Z,75.50
2023-05-25T10:38:44.970Z,79.10
2023-05-25T10:41:14.378Z,81.00
2023-05-25T10:43:43.781Z,80.80
2023-05-25T10:46:12.860Z,77.90
2023-05-25T10:48:46.039Z,82.90
2023-05-25T10:51:14.461Z,80.60
2023-05-25T10:53:46.982Z,77.40
2023-05-25T10:56:14.830Z,77.20
2023-05-25T10:58:46.864Z,80.10
2023-05-25T11:01:16.564Z,79.80
2023-05-25T11:03:57.395Z,80.80
2023-05-25T11:06:48.162Z,79.60
2023-05-25T11:09:33.950Z,78.40
2023-05-25T11:12:03.895Z,80.70
2023-05-25T11:14:37.359Z,78.10
2023-05-25T11:17:12.011Z,74.70
2023-05-25T11:19:43.535Z,74.40
2023-05-25T11:22:18.117Z,74.30
2023-05-25T11:24:46.634Z,75.50
2023-05-25T11:27:14.343Z,78.30
2023-05-25T11:29:41.970Z,77.90
2023-05-25T11:32:14.573Z,80.90
2023-05-25T11:34:46.806Z,82.90
2023-05-25T11:37:21.403Z,82.70
2023-05-25T11:39:51.735Z,83.50
2023-05-25T11:42:24.549Z,84.90
2023-05-25T11:44:52.494Z,85.00
2023-05-25T11:47:25.228Z,86.80
2023-05-25T11:49:56.668Z,84.50
2023-05-25T11:52:24.400Z,84.80
2023-05-25T11:54:53.418Z,82.90
2023-05-25T11:57:25.374Z,85.60
2023-05-25T11:59:55.702Z,86.60
2023-05-25T12:02:24.766Z,88.80
2023-05-25T12:05:00.240Z,89.50
2023-05-25T12:07:30.798Z,87.90
2023-05-25T12:10:14.100Z,89.10
2023-05-25T12:12:50.450Z,87.60
2023-05-25T12:15:22.732Z,87.70
2023-05-25T12:17:51.802Z,90.00
2023-05-25T12:20:20.149Z,90.00
2023-05-25T12:22:48.169Z,91.20
2023-05-25T12:25:20.134Z,90.80
2023-05-25T12:27:47.676Z,88.80
2023-05-25T12:30:15.367Z,88.00
2023-05-25T12:33:01.913Z,88.40
2023-05-25T12:35:44.240Z,89.10
2023-05-25T12:38:17.744Z,88.50
2023-05-25T12:40:46.088Z,90.30
2023-05-25T12:43:17.064Z,91.20
2023-05-25T12:45:45.064Z,91.10
2023-05-25T12:48:12.921Z,91.20
2023-05-25T12:50:57.293Z,90.50
2023-05-25T12:53:25.504Z,91.10
2023-05-25T12:56:03.632Z,91.30
2023-05-25T12:58:31.228Z,90.30
2023-05-25T13:00:58.838Z,90.70
2023-05-25T13:03:26.540Z,90.90
2023-05-25T13:06:01.021Z,90.30
2023-05-25T13:08:29.472Z,91.70
2023-05-25T13:10:57.091Z,90.60
2023-05-25T13:13:24.708Z,91.40
2023-05-25T13:15:52.402Z,90.90
2023-05-25T13:18:20.048Z,90.80
2023-05-25T13:20:50.422Z,91.70
2023-05-25T13:23:19.447Z,91.10
2023-05-25T13:25:47.419Z,90.90
2023-05-25T13:28:14.970Z,90.70
2023-05-25T13:30:43.253Z,91.40
2023-05-25T13:33:11.200Z,92.20
2023-05-25T13:35:46.027Z,92.40
2023-05-25T13:38:15.229Z,93.00
2023-05-25T13:40:45.619Z,90.60
2023-05-25T13:43:13.482Z,90.50
2023-05-25T13:45:41.521Z,91.00
2023-05-25T13:48:09.194Z,91.40
2023-05-25T13:50:36.799Z,91.50
2023-05-25T13:53:04.396Z,91.70
2023-05-25T13:55:32.010Z,92.60
2023-05-25T13:57:59.542Z,91.10
2023-05-25T14:00:28.069Z,91.50
2023-05-25T14:02:55.876Z,92.40
2023-05-25T14:05:23.703Z,91.90
2023-05-25T14:07:52.987Z,91.20
2023-05-25T14:10:21.189Z,91.40
2023-05-25T14:12:49.334Z,92.80
2023-05-25T14:15:17.228Z,92.90
2023-05-25T14:17:44.883Z,92.50
2023-05-25T14:20:16.186Z,91.80
2023-05-25T14:22:43.934Z,91.60
2023-05-25T14:25:11.635Z,91.10
2023-05-25T14:27:39.244Z,90.00
2023-05-25T14:30:07.736Z,90.20
2023-05-25T14:32:35.305Z,89.50
2023-05-25T14:35:02.854Z,88.40
2023-05-25T14:37:30.538Z,89.70
2023-05-25T14:39:58.205Z,89.70
2023-05-25T14:42:25.816Z,90.20
2023-05-25T14:44:53.417Z,90.90
2023-05-25T14:47:21.954Z,91.60
2023-05-25T14:49:49.607Z,92.00
2023-05-25T14:52:17.223Z,91.40
2023-05-25T14:54:45.650Z,91.00
2023-05-25T14:57:15.905Z,91.40
2023-05-25T14:59:43.586Z,90.90
2023-05-25T15:02:11.282Z,91.10
2023-05-25T15:04:38.904Z,90.70
2023-05-25T15:07:06.692Z,90.00
2023-05-25T15:09:34.516Z,89.70
2023-05-25T15:12:02.600Z,89.60
2023-05-25T15:14:30.289Z,89.10
2023-05-25T15:16:57.906Z,88.80
2023-05-25T15:19:25.592Z,89.70
2023-05-25T15:21:53.598Z,90.50
2023-05-25T15:24:21.785Z,89.50
2023-05-25T15:26:49.498Z,86.80
2023-05-25T15:29:17.158Z,89.20
2023-05-25T15:31:45.613Z,90.00
2023-05-25T15:34:13.204Z,90.30
2023-05-25T15:36:40.898Z,90.50
2023-05-25T15:39:09.187Z,90.30
2023-05-25T15:41:36.760Z,90.70
2023-05-25T15:44:08.364Z,89.10
2023-05-25T15:46:36.214Z,90.00
2023-05-25T15:49:03.865Z,90.20
2023-05-25T15:51:32.879Z,89.20
2023-05-25T15:54:00.446Z,90.00
2023-05-25T15:56:27.947Z,90.10
2023-05-25T15:58:55.655Z,90.30
2023-05-25T16:01:23.377Z,90.90
2023-05-25T16:03:51.023Z,91.50
2023-05-25T16:06:18.714Z,90.60
2023-05-25T16:08:46.364Z,90.30
2023-05-25T16:11:13.941Z,90.70
2023-05-25T16:13:41.610Z,90.40
2023-05-25T16:16:09.930Z,91.10
2023-05-25T16:18:37.548Z,90.70
2023-05-25T16:21:05.538Z,91.20
2023-05-25T16:23:33.089Z,91.10
2023-05-25T16:26:00.760Z,91.00
2023-05-25T16:28:28.344Z,90.60
2023-05-25T16:30:55.923Z,91.30
2023-05-25T16:33:23.450Z,90.40
2023-05-25T16:35:53.855Z,90.20
2023-05-25T16:38:21.414Z,88.80
2023-05-25T16:40:48.981Z,90.20
2023-05-25T16:43:16.718Z,90.80
2023-05-25T16:45:44.406Z,91.40
2023-05-25T16:48:12.352Z,91.20
2023-05-25T16:50:40.139Z,91.50
2023-05-25T16:53:07.690Z,91.40
2023-05-25T16:55:35.231Z,92.20
2023-05-25T16:58:02.864Z,92.30
2023-05-25T17:00:30.526Z,92.30
2023-05-25T17:02:58.168Z,92.60
2023-05-25T17:05:25.938Z,92.90
2023-05-25T17:07:53.588Z,92.80
2023-05-25T17:10:21.285Z,92.50
2023-05-25T17:12:48.868Z,92.60
2023-05-25T17:15:16.441Z,92.70
2023-05-25T17:17:44.161Z,92.90
2023-05-25T17:20:11.932Z,93.30
2023-05-25T17:22:39.655Z,93.60
2023-05-25T17:25:09.189Z,93.60
2023-05-25T17:27:36.765Z,93.30
2023-05-25T17:30:05.180Z,93.30
2023-05-25T17:32:32.926Z,93.60
2023-05-25T17:35:00.736Z,92.80
2023-05-25T17:37:28.452Z,92.90
2023-05-25T17:39:56.047Z,92.60
2023-05-25T17:42:23.645Z,91.80
2023-05-25T17:44:51.202Z,92.10
2023-05-25T17:47:18.988Z,92.80
2023-05-25T17:49:46.826Z,92.70
2023-05-25T17:52:14.407Z,92.80
2023-05-25T17:54:41.975Z,93.60
2023-05-25T17:57:09.913Z,93.60
2023-05-25T17:59:37.551Z,93.40
2023-05-25T18:02:05.463Z,93.60
2023-05-25T18:04:33.164Z,93.80
2023-05-25T18:07:00.745Z,93.60
2023-05-25T18:09:28.424Z,93.90
2023-05-25T18:11:56.631Z,94.30
2023-05-25T18:14:24.158Z,94.30
2023-05-25T18:16:51.930Z,94.30
2023-05-25T18:19:20.808Z,94.20
2023-05-25T18:21:49.472Z,95.00
2023-05-25T18:24:17.192Z,94.70
2023-05-25T18:26:46.494Z,95.00
2023-05-25T18:29:14.100Z,95.20
2023-05-25T18:31:46.508Z,95.60
2023-05-25T18:34:14.413Z,95.40
2023-05-25T18:36:42.109Z,95.80
2023-05-25T18:39:10.157Z,95.50
2023-05-25T18:41:39.678Z,95.80
2023-05-25T18:44:08.182Z,96.20
2023-05-25T18:46:38.385Z,96.80
2023-05-25T18:49:06.185Z,97.30
2023-05-25T18:51:34.775Z,97.40
2023-05-25T18:54:02.501Z,97.10
2023-05-25T18:56:30.081Z,97.50
2023-05-25T18:58:57.767Z,97.50
2023-05-25T19:01:28.424Z,97.30
2023-05-25T19:03:58.444Z,97.40
2023-05-25T19:06:27.413Z,97.80
2023-05-25T19:08:55.534Z,97.90
2023-05-25T19:11:23.204Z,98.50
2023-05-25T19:13:50.764Z,98.60
2023-05-25T19:16:18.452Z,99.00
2023-05-25T19:18:47.188Z,99.30
2023-05-25T19:21:14.730Z,99.40
2023-05-25T19:23:42.595Z,99.40
2023-05-25T19:26:10.127Z,99.70
2023-05-25T19:28:37.665Z,99.80
2023-05-25T19:31:05.351Z,99.90
2023-05-25T19:33:32.920Z,99.90
2023-05-25T19:36:00.492Z,99.90
2023-05-25T19:38:31.494Z,99.90
2023-05-25T19:41:08.226Z,99.90
2023-05-25T19:43:36.313Z,99.90
2023-05-25T19:46:04.223Z,99.90
2023-05-25T19:48:32.000Z,99.90
2023-05-25T19:51:01.129Z,99.90
2023-05-25T19:53:30.188Z,99.90
2023-05-25T19:55:57.942Z,99.90
2023-05-25T19:58:25.558Z,99.90
2023-05-25T20:00:53.440Z,99.90
2023-05-25T20:03:21.276Z,99.90
2023-05-25T20:05:48.990Z,99.90
2023-05-25T20:08:16.641Z,99.90
2023-05-25T20:10:45.247Z,99.90
2023-05-25T20:13:12.871Z,99.90
2023-05-25T20:15:41.044Z,99.90
2023-05-25T20:18:08.684Z,99.90
2023-05-25T20:20:36.375Z,99.90
2023-05-25T20:23:04.244Z,99.90
2023-05-25T20:25:31.923Z,99.90
2023-05-25T20:27:59.758Z,99.90
2023-05-25T20:30:27.558Z,99.90
2023-05-25T20:32:55.265Z,99.90
2023-05-25T20:35:23.105Z,99.90
2023-05-25T20:37:50.761Z,99.90
2023-05-25T20:40:18.339Z,99.90
2023-05-25T20:42:45.949Z,99.90
2023-05-25T20:45:13.579Z,99.90
2023-05-25T20:47:41.223Z,99.90
2023-05-25T20:50:08.964Z,99.90
2023-05-25T20:52:36.749Z,99.90
2023-05-25T20:55:04.602Z,99.90
2023-05-25T20:57:32.179Z,99.90
2023-05-25T21:00:00.213Z,99.90
2023-05-25T21:05:11.015Z,99.90
2023-05-25T21:07:38.651Z,99.90
2023-05-25T21:10:06.776Z,99.90
2023-05-25T21:12:35.194Z,99.90
2023-05-25T21:15:04.019Z,99.90
2023-05-25T21:17:31.548Z,99.90
2023-05-25T21:19:59.230Z,99.90
2023-05-25T21:22:27.242Z,99.90
2023-05-25T21:24:54.798Z,99.90
2023-05-25T21:27:22.435Z,99.90
2023-05-25T21:29:50.295Z,99.90
2023-05-25T21:32:18.108Z,99.90
2023-05-25T21:34:45.732Z,99.90
2023-05-25T21:37:13.284Z,99.90
2023-05-25T21:39:40.961Z,99.90
2023-05-25T21:42:09.724Z,99.90
2023-05-25T21:44:37.308Z,99.90
2023-05-25T21:47:05.283Z,99.90
2023-05-25T21:49:33.315Z,99.90
2023-05-25T21:52:00.918Z,99.90
2023-05-25T21:54:28.534Z,99.90
2023-05-25T21:56:56.238Z,99.90
2023-05-25T21:59:24.009Z,99.90
2023-05-25T22:01:51.629Z,99.90
2023-05-25T22:04:19.237Z,99.90
2023-05-25T22:06:47.020Z,99.90
2023-05-25T22:09:14.757Z,99.90
2023-05-25T22:11:42.882Z,99.90
2023-05-25T22:14:10.494Z,99.90
2023-05-25T22:16:38.098Z,99.90
2023-05-25T22:19:05.853Z,99.90
2023-05-25T22:21:33.434Z,99.90
2023-05-25T22:24:01.067Z,99.90
2023-05-25T22:26:29.483Z,99.90
2023-05-25T22:28:57.406Z,99.90
2023-05-25T22:31:26.618Z,99.90
2023-05-25T22:33:54.337Z,99.90
2023-05-25T22:36:21.912Z,99.90
2023-05-25T22:38:49.471Z,99.90
2023-05-25T22:41:17.142Z,99.90
2023-05-25T22:43:44.976Z,99.90
2023-05-25T22:46:12.980Z,99.90
2023-05-25T22:48:40.945Z,99.90
2023-05-25T22:51:08.602Z,99.90
2023-05-25T22:53:36.129Z,99.90
2023-05-25T22:56:03.954Z,99.90
2023-05-25T22:58:31.467Z,99.90
2023-05-25T23:00:59.029Z,99.90
2023-05-25T23:03:26.785Z,99.90
2023-05-25T23:05:54.537Z,99.90
2023-05-25T23:08:22.135Z,99.90
2023-05-25T23:13:31.283Z,99.90
2023-05-25T23:15:59.825Z,99.90
2023-05-25T23:18:27.380Z,99.90
2023-05-25T23:20:54.917Z,99.90
2023-05-25T23:23:22.497Z,99.90
2023-05-25T23:25:50.071Z,99.90
2023-05-25T23:28:17.818Z,99.90
2023-05-25T23:30:45.431Z,99.90
2023-05-25T23:33:12.999Z,99.90
2023-05-25T23:35:40.537Z,99.90
2023-05-25T23:38:08.165Z,99.90
2023-05-25T23:40:35.802Z,99.90
2023-05-25T23:43:03.393Z,99.90
2023-05-25T23:45:31.035Z,99.90
2023-05-25T23:47:58.674Z,99.90
2023-05-25T23:50:26.237Z,99.90
2023-05-25T23:52:53.846Z,99.90
2023-05-25T23:55:21.930Z,99.90
2023-05-25T23:57:49.603Z,99.90
